Time;durP1;ratioP1;P1;durP2;ratioP2;P2;SDS_P1;SDS_P2;PMS_P1;PMS_P2;Temp;Humidity;BMP_temperature;BMP_pressure;BME280_temperature;BME280_humidity;BME280_pressure;Samples;Min_cycle;Max_cycle;Signal;HPM_P1;HPM_P2
2022/10/01 00:00:19;;;;;;;7.67;6.97;;;;;;;7.77;94.89;100769.50;4956218;28;20213;-80
2022/10/01 00:02:45;;;;;;;7.23;6.53;;;;;;;7.76;94.10;100772.88;4955796;28;20279;-81
2022/10/01 00:05:11;;;;;;;7.83;7.03;;;;;;;7.75;93.76;100763.53;4962489;28;20193;-80
2022/10/01 00:07:38;;;;;;;7.17;6.00;;;;;;;7.71;93.53;100767.66;4952997;28;20332;-80
2022/10/01 00:10:05;;;;;;;6.87;6.17;;;;;;;7.70;94.22;100757.44;4953911;28;20204;-81
2022/10/01 00:12:30;;;;;;;6.80;6.13;;;;;;;7.71;95.37;100757.47;4955870;28;20204;-80
2022/10/01 00:14:55;;;;;;;7.53;6.73;;;;;;;7.72;95.34;100751.56;4954619;28;20201;-80
2022/10/01 00:17:21;;;;;;;8.30;6.57;;;;;;;7.75;94.84;100749.09;4953756;29;20188;-80
2022/10/01 00:19:46;;;;;;;9.63;6.50;;;;;;;7.74;95.99;100744.81;4953902;28;20709;-81
2022/10/01 00:22:12;;;;;;;8.37;6.77;;;;;;;7.75;95.10;100741.47;4955411;28;20240;-81
2022/10/01 00:24:37;;;;;;;7.00;6.30;;;;;;;7.75;95.24;100733.81;4958572;28;20196;-80
2022/10/01 00:27:03;;;;;;;7.60;6.40;;;;;;;7.75;95.47;100738.91;4955293;28;20742;-80
2022/10/01 00:29:28;;;;;;;7.27;6.27;;;;;;;7.73;94.88;100730.34;4953298;28;20817;-79
2022/10/01 00:31:53;;;;;;;7.40;5.70;;;;;;;7.75;95.87;100732.94;4953117;28;20195;-79
2022/10/01 00:34:19;;;;;;;7.03;6.33;;;;;;;7.74;94.55;100732.06;4968576;28;20202;-80
2022/10/01 00:36:45;;;;;;;6.83;5.50;;;;;;;7.75;95.34;100727.84;4952836;29;20204;-79
2022/10/01 00:39:11;;;;;;;8.23;6.43;;;;;;;7.75;95.31;100726.16;4953434;28;20193;-80
2022/10/01 00:41:37;;;;;;;11.20;5.73;;;;;;;7.74;95.18;100726.13;4953666;28;20201;-80
2022/10/01 00:44:33;;;;;;;8.80;6.20;;;;;;;7.76;95.46;100720.25;4968225;28;20272;-80
2022/10/01 00:47:19;;;;;;;6.43;5.67;;;;;;;7.75;95.59;100718.53;4950084;28;20221;-79
2022/10/01 00:49:46;;;;;;;7.43;5.60;;;;;;;7.75;95.14;100715.09;4952951;28;20737;-80
2022/10/01 00:52:17;;;;;;;6.13;5.47;;;;;;;7.74;95.75;100716.78;4970485;28;20196;-80
2022/10/01 00:55:10;;;;;;;6.37;5.70;;;;;;;7.73;95.83;100706.53;4952107;29;20193;-80
2022/10/01 00:57:37;;;;;;;9.67;6.53;;;;;;;7.75;95.27;100700.69;4952720;29;20705;-80
2022/10/01 01:00:06;;;;;;;7.17;6.10;;;;;;;7.78;95.65;100697.34;4968362;28;20227;-80
2022/10/01 01:02:32;;;;;;;7.80;5.77;;;;;;;7.77;95.48;100699.03;4953041;28;20189;-79
2022/10/01 01:04:58;;;;;;;6.87;6.17;;;;;;;7.75;96.20;100687.06;4954241;28;20725;-79
2022/10/01 01:07:24;;;;;;;8.00;6.30;;;;;;;7.73;96.55;100686.16;4966487;28;20212;-79
2022/10/01 01:09:52;;;;;;;8.23;6.53;;;;;;;7.77;95.50;100676.09;4951804;28;20228;-80
2022/10/01 01:12:24;;;;;;;7.60;6.30;;;;;;;7.78;95.73;100680.38;4961271;28;20216;-80
2022/10/01 01:15:26;;;;;;;8.17;5.57;;;;;;;7.75;95.77;100677.75;4959670;28;20193;-80
2022/10/01 01:18:12;;;;;;;8.80;5.87;;;;;;;7.73;95.54;100670.84;4952788;29;20192;-80
2022/10/01 01:20:40;;;;;;;7.93;5.93;;;;;;;7.71;96.08;100667.41;4949898;28;20240;-80
2022/10/01 01:23:15;;;;;;;7.73;5.80;;;;;;;7.71;95.14;100670.84;4955870;28;20217;-81
2022/10/01 01:25:48;;;;;;;6.87;6.17;;;;;;;7.73;95.46;100670.84;4952917;28;20199;-80
2022/10/01 01:28:23;;;;;;;8.17;6.37;;;;;;;7.77;96.42;100668.44;4953155;28;20729;-80
2022/10/01 01:30:54;;;;;;;9.27;6.57;;;;;;;7.99;95.69;100657.13;4958755;28;20282;-80
2022/10/01 01:33:23;;;;;;;6.47;5.77;;;;;;;8.02;96.43;100655.53;4965363;28;20264;-80
2022/10/01 01:35:53;;;;;;;7.10;5.90;;;;;;;8.13;95.62;100655.81;4970555;28;20195;-80
2022/10/01 01:38:27;;;;;;;6.80;5.47;;;;;;;8.15;96.31;100651.63;4951845;29;20209;-80
2022/10/01 01:40:56;;;;;;;6.17;5.50;;;;;;;8.40;95.89;100642.13;4952609;28;20267;-79
2022/10/01 01:43:28;;;;;;;6.63;5.17;;;;;;;8.59;95.47;100640.84;4949342;29;20213;-80
2022/10/01 01:45:53;;;;;;;6.73;5.03;;;;;;;8.66;94.71;100630.81;4972883;28;20243;-80
2022/10/01 01:48:22;;;;;;;6.33;4.73;;;;;;;8.78;94.37;100620.91;4985959;28;20753;-80
2022/10/01 01:51:03;;;;;;;7.67;4.60;;;;;;;8.84;93.63;100617.63;4957382;29;20709;-80
2022/10/01 01:53:30;;;;;;;5.13;4.60;;;;;;;8.87;93.50;100620.25;4960508;29;20204;-80
2022/10/01 01:55:59;;;;;;;6.33;4.40;;;;;;;8.90;93.71;100612.66;4975669;28;20216;-80
2022/10/01 01:58:26;;;;;;;5.57;5.03;;;;;;;8.97;92.90;100606.84;4963653;28;20742;-80
2022/10/01 02:00:52;;;;;;;6.43;5.07;;;;;;;9.06;92.70;100602.81;4966201;28;20259;-82
2022/10/01 02:03:21;;;;;;;11.33;4.63;;;;;;;9.13;91.54;100602.09;4945863;29;20192;-78
2022/10/01 02:05:58;;;;;;;4.93;4.43;;;;;;;9.16;91.95;100596.19;4957012;28;20190;-81
2022/10/01 02:08:48;;;;;;;4.70;4.30;;;;;;;9.14;91.41;100588.50;4960410;29;20192;-79
2022/10/01 02:11:29;;;;;;;5.13;4.17;;;;;;;9.11;92.17;100585.88;4977834;28;20217;-79
2022/10/01 02:14:12;;;;;;;4.73;4.23;;;;;;;9.16;91.93;100580.84;4961096;28;20260;-81
2022/10/01 02:16:51;;;;;;;6.87;4.73;;;;;;;9.22;91.74;100581.84;4973483;28;20277;-79
2022/10/01 02:19:30;;;;;;;5.00;4.30;;;;;;;9.21;91.41;100577.56;4955751;28;20185;-80
2022/10/01 02:22:21;;;;;;;5.00;4.43;;;;;;;9.24;91.43;100575.09;4955830;29;20217;-80
2022/10/01 02:24:57;;;;;;;5.80;4.37;;;;;;;9.25;91.36;100560.59;4949983;29;20204;-81
2022/10/01 02:27:35;;;;;;;4.90;4.40;;;;;;;9.26;91.46;100559.81;4939198;29;20200;-81
2022/10/01 02:30:07;;;;;;;6.30;5.03;;;;;;;9.31;90.41;100558.19;4961782;28;20239;-80
2022/10/01 02:32:34;;;;;;;6.63;4.50;;;;;;;9.33;90.29;100552.28;4979692;28;20897;-79
2022/10/01 02:35:01;;;;;;;5.60;4.53;;;;;;;9.34;90.15;100553.13;4958324;28;20820;-80
2022/10/01 02:37:27;;;;;;;4.93;4.33;;;;;;;9.37;90.61;100541.28;4975384;28;20201;-78
2022/10/01 02:39:55;;;;;;;5.53;4.30;;;;;;;9.37;89.78;100546.41;4958414;29;20213;-79
2022/10/01 02:42:25;;;;;;;7.40;3.97;;;;;;;9.38;90.74;100544.69;4975644;28;20235;-79
2022/10/01 02:44:54;;;;;;;8.07;4.40;;;;;;;9.40;90.75;100533.66;4968515;28;20203;-80
2022/10/01 02:47:32;;;;;;;6.77;4.53;;;;;;;9.44;90.35;100532.06;4966796;28;20216;-80
2022/10/01 02:49:57;;;;;;;8.73;4.83;;;;;;;9.43;90.02;100523.50;4954852;29;20213;-81
2022/10/01 02:52:25;;;;;;;7.43;4.53;;;;;;;9.45;90.35;100524.38;4958785;28;20266;-81
2022/10/01 02:54:57;;;;;;;7.17;4.37;;;;;;;9.51;90.21;100521.97;4958317;29;20281;-80
2022/10/01 02:57:23;;;;;;;5.47;4.33;;;;;;;9.50;89.87;100520.22;4955413;28;20224;-80
2022/10/01 02:59:56;;;;;;;4.83;4.33;;;;;;;9.53;89.67;100511.75;4974254;28;20227;-80
2022/10/01 03:02:26;;;;;;;4.63;4.20;;;;;;;9.55;90.50;100507.53;4962473;28;20180;-80
2022/10/01 03:04:51;;;;;;;6.00;4.33;;;;;;;9.54;90.43;100506.66;4960636;28;20247;-79
2022/10/01 03:07:17;;;;;;;4.90;4.03;;;;;;;9.56;90.17;100499.03;4960206;28;20213;-80
2022/10/01 03:09:43;;;;;;;4.53;3.90;;;;;;;9.58;89.74;100488.00;4942798;29;20236;-79
2022/10/01 03:12:09;;;;;;;6.13;4.00;;;;;;;9.58;90.20;100492.28;4959866;29;20197;-81
2022/10/01 03:14:35;;;;;;;5.93;4.47;;;;;;;9.63;90.19;100488.09;4976501;28;20284;-79
2022/10/01 03:17:01;;;;;;;4.93;3.87;;;;;;;9.64;89.83;100477.03;4971687;28;20252;-79
2022/10/01 03:19:26;;;;;;;5.83;4.40;;;;;;;9.66;89.71;100471.09;4962296;28;20200;-79
2022/10/01 03:21:52;;;;;;;4.67;3.93;;;;;;;9.69;89.74;100476.28;4958203;28;20205;-80
2022/10/01 03:24:18;;;;;;;5.17;3.83;;;;;;;9.71;89.13;100471.16;4973861;28;20189;-81
2022/10/01 03:26:44;;;;;;;5.30;4.30;;;;;;;9.73;89.15;100464.41;4958021;29;20213;-80
2022/10/01 03:29:09;;;;;;;4.73;3.77;;;;;;;9.78;89.02;100462.78;4963802;28;20201;-81
2022/10/01 03:31:36;;;;;;;6.53;4.30;;;;;;;9.81;88.10;100457.72;4962884;28;20252;-80
2022/10/01 03:34:02;;;;;;;5.60;4.07;;;;;;;9.90;88.02;100458.72;4961912;28;20185;-80
2022/10/01 03:36:28;;;;;;;5.43;4.03;;;;;;;9.91;88.03;100455.31;4958935;28;20249;-80
2022/10/01 03:38:55;;;;;;;4.70;4.30;;;;;;;9.95;88.10;100457.09;4957664;29;20251;-81
2022/10/01 03:41:21;;;;;;;6.07;4.10;;;;;;;10.00;87.26;100454.63;4959256;28;20244;-79
2022/10/01 03:43:46;;;;;;;7.73;3.90;;;;;;;10.00;87.58;100447.78;4959713;28;20197;-80
2022/10/01 03:46:12;;;;;;;5.30;4.23;;;;;;;10.11;86.00;100460.78;4988307;28;20457;-77
2022/10/01 03:48:37;;;;;;;4.77;3.60;;;;;;;10.12;86.80;100450.56;4967944;28;20197;-78
2022/10/01 03:51:03;;;;;;;5.70;3.90;;;;;;;10.13;86.75;100441.22;4977499;28;20244;-81
2022/10/01 03:53:30;;;;;;;3.87;3.40;;;;;;;10.13;86.86;100442.06;4978441;28;20221;-81
2022/10/01 03:55:57;;;;;;;6.47;3.37;;;;;;;10.20;86.41;100450.69;4983750;28;20289;-78
2022/10/01 03:58:22;;;;;;;6.03;3.87;;;;;;;10.21;86.45;100439.59;4960632;28;20218;-80
2022/10/01 04:00:48;;;;;;;4.13;3.33;;;;;;;10.24;86.35;100437.09;4974656;28;20563;-80
2022/10/01 04:03:15;;;;;;;6.93;3.73;;;;;;;10.24;86.30;100445.66;4957247;28;20200;-79
2022/10/01 04:05:42;;;;;;;4.90;3.47;;;;;;;10.29;85.19;100435.47;4959282;28;20192;-82
2022/10/01 04:08:07;;;;;;;4.83;3.60;;;;;;;10.32;84.94;100438.06;4976057;28;20236;-81
2022/10/01 04:10:33;;;;;;;4.23;3.20;;;;;;;10.32;85.72;100436.34;4959556;28;20268;-80
2022/10/01 04:12:58;;;;;;;3.30;2.97;;;;;;;10.32;85.75;100430.38;4973785;28;20672;-78
2022/10/01 04:15:24;;;;;;;5.07;3.60;;;;;;;10.36;85.59;100439.81;4963649;28;20193;-82
2022/10/01 04:17:50;;;;;;;5.37;3.43;;;;;;;10.35;85.59;100433.84;4961640;28;20264;-82
2022/10/01 04:20:15;;;;;;;5.63;2.93;;;;;;;10.36;85.65;100427.88;4971320;28;20237;-81
2022/10/01 04:22:41;;;;;;;5.30;3.27;;;;;;;10.36;86.21;100429.56;4965613;28;20650;-80
2022/10/01 04:25:10;;;;;;;3.30;3.00;;;;;;;10.35;87.21;100421.06;4972741;28;20289;-80
2022/10/01 04:27:40;;;;;;;5.20;3.83;;;;;;;10.35;87.25;100410.81;4956948;28;20209;-80
2022/10/01 04:30:07;;;;;;;4.83;3.63;;;;;;;10.34;87.73;100405.66;4957924;28;20217;-79
2022/10/01 04:32:33;;;;;;;4.77;3.53;;;;;;;10.34;87.58;100403.09;4959106;28;20196;-80
2022/10/01 04:34:59;;;;;;;4.40;3.50;;;;;;;10.31;88.17;100401.38;4958801;28;20201;-82
2022/10/01 04:37:26;;;;;;;5.47;3.70;;;;;;;10.31;88.32;100406.50;4973908;28;20568;-79
2022/10/01 04:39:52;;;;;;;7.50;4.00;;;;;;;10.32;88.86;100404.81;4960990;29;20209;-79
2022/10/01 04:42:18;;;;;;;3.97;3.57;;;;;;;10.30;89.17;100401.34;4954805;28;20195;-79
2022/10/01 04:44:43;;;;;;;6.87;4.40;;;;;;;10.27;89.72;100389.38;4960167;28;20279;-79
2022/10/01 04:47:09;;;;;;;5.30;4.20;;;;;;;10.27;90.62;100383.41;4955273;28;20291;-78
2022/10/01 04:49:34;;;;;;;4.67;4.10;;;;;;;10.26;90.98;100379.09;4967588;28;20189;-79
2022/10/01 04:52:00;;;;;;;5.93;4.10;;;;;;;10.23;91.29;100384.22;4938126;28;20902;-80
2022/10/01 04:54:26;;;;;;;7.43;4.27;;;;;;;10.23;91.50;100371.41;4959583;28;20185;-79
2022/10/01 04:56:51;;;;;;;5.57;3.90;;;;;;;10.23;91.60;100362.03;4957373;28;20181;-79
2022/10/01 04:59:18;;;;;;;6.03;3.87;;;;;;;10.24;91.66;100360.34;4957018;28;20192;-81
2022/10/01 05:01:44;;;;;;;7.93;4.30;;;;;;;10.23;91.63;100356.06;4960037;28;20291;-80
2022/10/01 05:04:10;;;;;;;4.73;4.27;;;;;;;10.21;92.46;100338.13;4971867;28;20227;-79
2022/10/01 05:06:36;;;;;;;5.83;4.10;;;;;;;10.19;93.08;100331.28;4954734;28;20228;-81
2022/10/01 05:09:02;;;;;;;6.07;5.10;;;;;;;10.19;93.56;100321.03;4955980;29;20189;-81
2022/10/01 05:11:28;;;;;;;6.17;4.73;;;;;;;10.19;93.37;100311.66;4970585;28;20220;-81
2022/10/01 05:13:53;;;;;;;5.27;4.27;;;;;;;10.20;93.16;100310.84;4939329;29;20197;-80
2022/10/01 05:16:19;;;;;;;5.07;4.00;;;;;;;10.19;92.90;100293.75;4953494;28;20669;-80
2022/10/01 05:18:44;;;;;;;6.87;4.17;;;;;;;10.20;93.34;100292.06;4953356;28;20990;-79
2022/10/01 05:21:10;;;;;;;4.77;4.10;;;;;;;10.19;93.09;100290.34;4960096;28;20347;-81
2022/10/01 05:23:37;;;;;;;5.57;4.17;;;;;;;10.20;93.66;100292.06;4958848;28;20181;-80
2022/10/01 05:26:04;;;;;;;5.07;4.00;;;;;;;10.20;93.92;100285.25;4974562;28;20192;-79
2022/10/01 05:28:34;;;;;;;6.13;4.33;;;;;;;10.18;94.00;100281.78;4958682;28;20255;-80
2022/10/01 05:31:01;;;;;;;6.40;4.03;;;;;;;10.17;94.10;100280.09;4974391;28;20221;-79
2022/10/01 05:33:28;;;;;;;4.83;4.30;;;;;;;10.17;94.62;100279.22;4983035;28;20193;-79
2022/10/01 05:35:55;;;;;;;10.83;4.73;;;;;;;10.15;94.59;100270.69;4964616;28;20224;-77
2022/10/01 05:38:20;;;;;;;5.27;4.53;;;;;;;10.14;95.02;100258.72;4960048;28;20193;-79
2022/10/01 05:40:46;;;;;;;5.90;4.50;;;;;;;10.13;94.97;100254.47;4979329;28;20231;-79
2022/10/01 05:43:11;;;;;;;6.30;4.63;;;;;;;10.13;95.66;100262.97;4962197;28;20197;-79
2022/10/01 05:45:37;;;;;;;6.50;4.47;;;;;;;10.13;95.36;100259.59;4960095;28;20330;-79
2022/10/01 05:48:05;;;;;;;6.03;4.47;;;;;;;10.11;95.87;100253.56;4973902;28;20213;-79
2022/10/01 05:50:33;;;;;;;5.87;4.67;;;;;;;10.13;95.63;100262.97;4967370;28;20615;-79
2022/10/01 05:53:00;;;;;;;6.03;4.73;;;;;;;10.11;95.67;100259.56;4981610;28;20695;-81
2022/10/01 05:55:30;;;;;;;8.43;5.07;;;;;;;10.14;95.99;100251.06;4958537;28;20232;-78
2022/10/01 05:57:58;;;;;;;5.73;4.73;;;;;;;10.14;96.24;100246.78;4960966;28;20193;-79
2022/10/01 06:00:26;;;;;;;6.87;4.57;;;;;;;10.17;95.65;100243.41;4961879;28;20205;-80
2022/10/01 06:02:52;;;;;;;6.50;5.07;;;;;;;10.17;96.14;100258.75;4948185;29;20252;-80
2022/10/01 06:05:19;;;;;;;7.30;5.50;;;;;;;10.18;96.23;100252.81;4957571;28;20658;-80
2022/10/01 06:07:44;;;;;;;8.27;6.00;;;;;;;10.18;96.25;100256.22;4958444;28;20661;-80
2022/10/01 06:10:10;;;;;;;6.47;5.83;;;;;;;10.15;96.33;100251.09;4972595;28;20236;-80
2022/10/01 06:12:35;;;;;;;6.60;5.60;;;;;;;10.13;96.63;100246.78;4956630;29;20184;-81
2022/10/01 06:15:01;;;;;;;11.73;6.20;;;;;;;10.15;96.42;100234.88;4972788;28;20196;-82
2022/10/01 06:17:26;;;;;;;7.97;6.27;;;;;;;10.14;97.36;100225.47;4952353;28;20784;-80
2022/10/01 06:19:51;;;;;;;5.83;5.00;;;;;;;10.16;97.53;100234.00;4970409;28;20215;-81
2022/10/01 06:22:17;;;;;;;6.87;5.77;;;;;;;10.17;97.33;100231.47;4971044;28;20195;-79
2022/10/01 06:24:42;;;;;;;7.63;6.47;;;;;;;10.18;97.57;100225.50;4934357;28;21289;-79
2022/10/01 06:27:09;;;;;;;6.43;5.03;;;;;;;10.21;98.01;100225.56;4943864;28;20237;-80
2022/10/01 06:29:34;;;;;;;5.23;4.73;;;;;;;10.19;97.59;100221.25;4955735;28;20185;-80
2022/10/01 06:32:00;;;;;;;6.23;4.97;;;;;;;10.19;97.98;100219.53;4955394;28;20255;-78
2022/10/01 06:34:25;;;;;;;5.97;4.93;;;;;;;10.20;98.14;100212.75;4952765;28;20188;-81
2022/10/01 06:36:51;;;;;;;6.50;5.57;;;;;;;10.22;98.37;100211.03;4961785;28;20284;-79
2022/10/01 06:39:16;;;;;;;5.83;5.10;;;;;;;10.23;98.10;100188.03;4962154;28;20189;-80
2022/10/01 06:41:42;;;;;;;6.03;5.53;;;;;;;10.22;98.64;100196.56;4956061;28;20212;-80
2022/10/01 06:44:13;;;;;;;7.20;5.77;;;;;;;10.33;98.59;100202.63;4940010;29;20216;-76
2022/10/01 06:46:39;;;;;;;8.40;6.43;;;;;;;10.50;98.75;100190.03;4953713;28;20260;-76
2022/10/01 06:49:04;;;;;;;7.03;5.53;;;;;;;10.57;98.59;100187.53;4953489;28;20643;-76
2022/10/01 06:54:13;;;;;;;6.03;4.60;;;;;;;10.61;98.25;100188.41;4953499;29;20977;-74
2022/10/01 06:56:38;;;;;;;5.53;4.80;;;;;;;10.51;98.28;100197.69;4968711;28;20276;-74
2022/10/01 06:59:04;;;;;;;10.20;4.60;;;;;;;10.49;98.36;100188.28;4934593;29;20185;-75
2022/10/01 07:01:31;;;;;;;5.07;4.67;;;;;;;10.56;98.71;100180.66;4943524;29;20717;-75
2022/10/01 07:03:57;;;;;;;7.63;4.97;;;;;;;10.48;98.62;100192.56;4962265;28;20220;-77
2022/10/01 07:06:24;;;;;;;5.20;4.70;;;;;;;10.44;98.99;100182.28;4962686;28;20729;-78
2022/10/01 07:08:50;;;;;;;7.20;4.80;;;;;;;10.48;99.21;100176.34;4968125;28;20194;-78
2022/10/01 07:11:16;;;;;;;6.60;5.47;;;;;;;10.44;98.84;100172.91;4962369;28;20213;-80
2022/10/01 07:13:41;;;;;;;6.83;5.60;;;;;;;10.44;99.53;100164.34;4954991;28;20220;-78
2022/10/01 07:16:06;;;;;;;7.07;5.17;;;;;;;10.39;99.46;100153.22;4956697;28;20198;-77
2022/10/01 07:18:32;;;;;;;6.27;5.60;;;;;;;10.43;99.83;100162.66;4954143;28;20216;-78
2022/10/01 07:20:57;;;;;;;5.30;4.80;;;;;;;10.41;100.00;100169.47;4961881;28;20256;-79
2022/10/01 07:23:23;;;;;;;6.13;4.87;;;;;;;10.39;100.00;100160.91;4968038;28;20201;-78
2022/10/01 07:25:49;;;;;;;6.83;5.63;;;;;;;10.36;100.00;100155.75;4952650;28;20204;-78
2022/10/01 07:28:19;;;;;;;7.90;4.87;;;;;;;10.35;100.00;100156.59;4953318;28;20311;-78
2022/10/01 07:30:55;;;;;;;6.40;4.77;;;;;;;10.35;100.00;100148.91;4949934;28;20209;-79
2022/10/01 07:33:21;;;;;;;7.43;5.20;;;;;;;10.35;100.00;100138.69;4950451;29;20200;-78
2022/10/01 07:35:46;;;;;;;6.20;4.90;;;;;;;10.37;100.00;100140.41;4948954;29;20273;-79
2022/10/01 07:38:12;;;;;;;7.17;5.27;;;;;;;10.36;100.00;100138.69;4957198;28;20838;-78
2022/10/01 07:40:37;;;;;;;6.30;5.70;;;;;;;10.37;100.00;100139.56;4953563;28;20248;-79
2022/10/01 07:43:03;;;;;;;5.43;4.93;;;;;;;10.37;100.00;100142.97;4951494;28;20244;-79
2022/10/01 07:45:29;;;;;;;6.40;5.80;;;;;;;10.37;100.00;100142.13;4967771;28;20769;-78
2022/10/01 07:47:58;;;;;;;7.77;5.33;;;;;;;10.35;100.00;100134.44;4953524;28;20217;-77
2022/10/01 07:50:25;;;;;;;6.83;5.70;;;;;;;10.40;100.00;100132.75;4973393;28;20267;-77
2022/10/01 07:52:53;;;;;;;6.10;5.00;;;;;;;10.43;100.00;100134.50;4952270;29;20193;-78
2022/10/01 07:55:19;;;;;;;6.53;4.73;;;;;;;10.41;100.00;100124.22;4955874;28;20193;-77
2022/10/01 07:57:53;;;;;;;5.13;4.63;;;;;;;10.44;100.00;100128.53;4954183;28;20182;-78
2022/10/01 08:00:19;;;;;;;7.63;5.00;;;;;;;10.45;100.00;100127.66;4952958;28;20213;-78
2022/10/01 08:02:50;;;;;;;6.63;5.13;;;;;;;10.48;100.00;100126.03;4951694;28;20197;-78
2022/10/01 08:05:16;;;;;;;7.67;5.70;;;;;;;10.48;100.00;100125.16;4957414;28;20189;-79
2022/10/01 08:07:42;;;;;;;5.83;5.23;;;;;;;10.49;100.00;100125.16;4953800;28;20842;-79
2022/10/01 08:10:08;;;;;;;6.70;5.30;;;;;;;10.49;100.00;100119.19;4954392;28;20209;-80
2022/10/01 08:12:33;;;;;;;6.10;4.83;;;;;;;10.49;100.00;100117.50;4953954;28;20216;-78
2022/10/01 08:14:58;;;;;;;5.93;4.93;;;;;;;10.51;100.00;100120.91;4966386;28;20196;-78
2022/10/01 08:17:24;;;;;;;4.80;4.40;;;;;;;10.51;100.00;100110.66;4951835;28;20188;-77
2022/10/01 08:19:49;;;;;;;7.60;5.07;;;;;;;10.54;100.00;100105.56;4966734;28;20253;-76
2022/10/01 08:22:15;;;;;;;5.70;4.80;;;;;;;10.58;100.00;100103.88;4952317;28;20189;-77
2022/10/01 08:24:40;;;;;;;4.87;4.37;;;;;;;10.56;100.00;100103.88;4950882;28;20204;-78
2022/10/01 08:27:06;;;;;;;5.93;4.83;;;;;;;10.60;100.00;100102.22;4968321;28;20256;-78
2022/10/01 08:29:32;;;;;;;5.43;4.30;;;;;;;10.62;100.00;100100.50;4954796;28;20189;-79
2022/10/01 08:31:58;;;;;;;5.33;4.43;;;;;;;10.62;100.00;100087.72;4955771;29;20197;-79
2022/10/01 08:34:23;;;;;;;6.67;4.80;;;;;;;10.62;100.00;100093.69;4956243;28;20821;-77
2022/10/01 08:36:53;;;;;;;6.40;4.53;;;;;;;10.62;100.00;100103.94;4953325;28;20191;-79
2022/10/01 08:39:19;;;;;;;5.07;4.53;;;;;;;10.64;100.00;100103.97;4953557;28;20193;-78
2022/10/01 08:41:58;;;;;;;6.07;3.93;;;;;;;10.65;100.00;100095.41;4956247;28;20692;-78
2022/10/01 08:44:29;;;;;;;4.43;4.00;;;;;;;10.64;100.00;100098.84;4970959;28;20188;-79
2022/10/01 08:47:01;;;;;;;4.53;3.90;;;;;;;10.65;100.00;100103.94;4953817;29;20232;-78
2022/10/01 08:49:33;;;;;;;4.47;3.90;;;;;;;10.62;100.00;100101.38;4955309;28;20220;-79
2022/10/01 08:52:12;;;;;;;5.43;3.67;;;;;;;10.64;100.00;100086.03;4955658;28;20286;-79
2022/10/01 08:54:45;;;;;;;4.50;4.10;;;;;;;10.62;100.00;100085.16;4959073;28;20231;-78
2022/10/01 08:57:13;;;;;;;5.63;3.47;;;;;;;10.62;100.00;100087.72;4966249;28;20189;-79
2022/10/01 08:59:45;;;;;;;3.97;3.67;;;;;;;10.62;100.00;100080.91;4967149;28;20193;-78
2022/10/01 09:02:25;;;;;;;4.23;3.83;;;;;;;10.66;100.00;100084.31;4966596;28;20196;-80
2022/10/01 09:04:58;;;;;;;3.53;3.23;;;;;;;10.68;100.00;100086.06;4952509;28;20192;-79
2022/10/01 09:07:42;;;;;;;3.83;3.53;;;;;;;10.69;100.00;100071.56;4956490;28;20453;-79
2022/10/01 09:10:42;;;;;;;4.20;3.43;;;;;;;10.68;100.00;100070.69;4950822;29;20690;-79
2022/10/01 09:13:29;;;;;;;4.37;3.50;;;;;;;10.73;100.00;100075.84;4952868;29;20189;-79
2022/10/01 09:16:28;;;;;;;4.53;3.47;;;;;;;10.75;100.00;100087.81;4951608;29;20649;-78
2022/10/01 09:19:16;;;;;;;4.13;3.63;;;;;;;10.77;100.00;100081.00;4960052;28;20279;-79
2022/10/01 09:22:02;;;;;;;4.10;3.20;;;;;;;10.82;100.00;100081.00;4952169;29;20228;-80
2022/10/01 09:24:43;;;;;;;3.83;3.53;;;;;;;10.83;100.00;100078.44;4961948;28;20193;-80
2022/10/01 09:27:17;;;;;;;4.00;3.33;;;;;;;10.83;100.00;100070.78;4967824;28;20201;-78
2022/10/01 09:29:57;;;;;;;4.30;3.90;;;;;;;10.84;100.00;100080.19;4955207;29;20184;-79
2022/10/01 09:32:28;;;;;;;4.97;3.97;;;;;;;10.90;100.00;100084.47;4954574;28;20232;-78
2022/10/01 09:34:54;;;;;;;4.33;3.93;;;;;;;10.92;100.00;100068.25;4968829;28;20556;-79
2022/10/01 09:37:42;;;;;;;4.40;4.00;;;;;;;10.93;100.00;100075.09;4954526;28;20192;-78
2022/10/01 09:40:34;;;;;;;6.90;4.60;;;;;;;10.98;100.00;100077.69;4952551;29;20753;-78
2022/10/01 09:43:02;;;;;;;4.63;4.23;;;;;;;11.01;100.00;100070.03;4951696;29;20687;-79
2022/10/01 09:45:28;;;;;;;5.23;4.67;;;;;;;11.03;100.00;100076.00;4952052;29;20197;-79
2022/10/01 09:48:02;;;;;;;5.17;4.67;;;;;;;11.05;100.00;100064.03;4952362;28;20287;-79
2022/10/01 09:50:40;;;;;;;5.27;4.57;;;;;;;11.08;100.00;100072.63;4958193;28;20212;-79
2022/10/01 09:53:14;;;;;;;5.10;4.60;;;;;;;11.11;100.00;100085.44;4954277;29;20684;-77
2022/10/01 09:55:43;;;;;;;5.67;4.70;;;;;;;11.15;100.00;100087.16;4976430;28;20207;-79
2022/10/01 09:58:13;;;;;;;5.83;4.47;;;;;;;11.22;100.00;100076.09;4957828;28;20209;-80
2022/10/01 10:00:40;;;;;;;5.70;4.70;;;;;;;11.30;100.00;100081.25;4959042;29;20213;-78
2022/10/01 10:03:06;;;;;;;5.10;4.60;;;;;;;11.33;100.00;100084.69;4966168;28;20208;-79
2022/10/01 10:05:45;;;;;;;5.63;5.13;;;;;;;11.37;100.00;100085.53;4960020;28;20198;-79
2022/10/01 10:08:14;;;;;;;4.70;4.30;;;;;;;11.46;100.00;100088.16;4973609;28;20220;-78
2022/10/01 10:10:59;;;;;;;5.57;4.80;;;;;;;11.61;100.00;100083.13;4956404;28;20220;-79
2022/10/01 10:13:37;;;;;;;5.53;4.90;;;;;;;11.66;100.00;100094.25;4971446;28;20192;-80
2022/10/01 10:16:25;;;;;;;5.47;4.97;;;;;;;11.77;100.00;100095.13;4947904;29;20188;-80
2022/10/01 10:18:54;;;;;;;8.07;5.47;;;;;;;12.20;100.00;100074.66;4958052;28;20196;-80
2022/10/01 10:21:24;;;;;;;5.43;3.93;;;;;;;12.68;100.00;100073.78;4958999;28;20299;-81
2022/10/01 10:23:54;;;;;;;5.87;3.97;;;;;;;12.51;100.00;100090.91;4971091;28;20224;-80
2022/10/01 10:26:34;;;;;;;5.10;3.80;;;;;;;12.68;100.00;100099.47;4962837;28;20203;-80
2022/10/01 10:29:01;;;;;;;4.53;3.67;;;;;;;12.67;100.00;100096.03;4956339;28;20247;-79
2022/10/01 10:31:34;;;;;;;4.77;4.13;;;;;;;12.64;100.00;100097.75;4956511;28;20208;-79
2022/10/01 10:34:41;;;;;;;4.43;4.03;;;;;;;12.73;100.00;100095.16;4941790;29;20197;-80
2022/10/01 10:37:15;;;;;;;3.90;3.50;;;;;;;13.11;100.00;100102.84;4917074;29;20600;-82
2022/10/01 10:39:46;;;;;;;4.47;4.07;;;;;;;12.99;100.00;100103.72;4916535;29;20435;-81
2022/10/01 10:42:15;;;;;;;4.67;3.80;;;;;;;13.30;100.00;100104.50;4940826;28;20316;-76
2022/10/01 10:44:44;;;;;;;4.60;3.90;;;;;;;13.45;98.91;100110.41;4960675;28;20193;-81
2022/10/01 10:47:13;;;;;;;3.87;3.50;;;;;;;13.51;99.05;100110.41;4958169;28;20625;-80
2022/10/01 10:49:49;;;;;;;4.23;3.67;;;;;;;13.61;98.57;100117.22;4959263;28;20208;-80
2022/10/01 10:52:23;;;;;;;11.30;3.60;;;;;;;13.64;98.79;100121.47;4959763;28;20185;-81
2022/10/01 10:54:53;;;;;;;5.83;3.77;;;;;;;13.40;98.64;100119.03;4937789;28;20244;-80
2022/10/01 10:57:27;;;;;;;5.67;4.07;;;;;;;13.27;98.80;100125.94;4947550;28;20190;-78
2022/10/01 11:00:05;;;;;;;6.33;4.17;;;;;;;13.32;99.16;100123.31;4961433;28;20296;-80
2022/10/01 11:02:32;;;;;;;6.40;3.77;;;;;;;13.41;99.05;100125.88;4960357;28;20211;-78
2022/10/01 11:05:04;;;;;;;4.03;3.63;;;;;;;13.25;99.23;100132.78;4943603;29;20207;-77
2022/10/01 11:07:30;;;;;;;4.50;4.10;;;;;;;13.26;99.49;100126.75;4945423;28;20217;-80
2022/10/01 11:10:21;;;;;;;5.20;4.70;;;;;;;13.42;99.57;100136.16;4957192;28;20244;-80
2022/10/01 11:12:56;;;;;;;8.77;3.90;;;;;;;13.55;99.59;100124.09;4955999;29;20272;-80
2022/10/01 11:15:41;;;;;;;6.30;3.77;;;;;;;13.73;97.82;100135.16;4967412;28;20216;-82
2022/10/01 11:18:12;;;;;;;5.33;4.27;;;;;;;13.66;98.38;100136.03;4969929;28;20193;-80
2022/10/01 11:21:06;;;;;;;6.13;3.83;;;;;;;14.16;97.17;100122.88;4958801;28;20213;-80
2022/10/01 11:23:40;;;;;;;4.93;2.87;;;;;;;14.74;94.29;100112.13;4953483;29;20197;-79
2022/10/01 11:26:15;;;;;;;3.40;2.10;;;;;;;19.37;73.57;100102.66;4960188;28;20188;-82
2022/10/01 11:29:08;;;;;;;3.47;1.87;;;;;;;23.32;58.13;100080.34;4973390;28;20200;-81
2022/10/01 11:32:02;;;;;;;5.32;1.90;;;;;;;26.98;47.69;100066.16;4955832;29;20770;-80
2022/10/01 11:34:39;;;;;;;3.58;1.42;;;;;;;26.42;46.07;100075.66;4940510;29;20244;-80
2022/10/01 11:37:15;;;;;;;4.80;1.50;;;;;;;23.38;51.34;100087.06;4959573;29;20232;-81
2022/10/01 11:39:43;;;;;;;3.60;1.70;;;;;;;27.38;44.12;100070.72;4969391;28;20193;-79